createdAt,value
2019-05-03T00:02:21.791Z,17.00
2019-05-03T00:04:51.651Z,17.10
2019-05-03T00:07:19.463Z,17.10
2019-05-03T00:09:47.086Z,17.20
2019-05-03T00:12:14.613Z,17.20
2019-05-03T00:14:44.030Z,17.20
2019-05-03T00:17:13.225Z,17.20
2019-05-03T00:19:42.235Z,17.20
2019-05-03T00:22:10.000Z,17.10
2019-05-03T00:24:37.715Z,17.00
2019-05-03T00:27:05.294Z,17.10
2019-05-03T00:29:33.231Z,17.00
2019-05-03T00:32:01.942Z,16.90
2019-05-03T00:34:35.261Z,16.80
2019-05-03T00:37:05.515Z,16.90
2019-05-03T00:39:41.764Z,16.80
2019-05-03T00:42:09.530Z,16.80
2019-05-03T00:44:37.099Z,16.70
2019-05-03T00:47:04.643Z,16.60
2019-05-03T00:49:32.425Z,16.50
2019-05-03T00:52:02.218Z,16.50
2019-05-03T00:54:31.575Z,16.40
2019-05-03T00:56:59.072Z,16.40
2019-05-03T00:59:27.024Z,16.40
2019-05-03T01:01:54.807Z,16.50
2019-05-03T01:04:23.235Z,16.60
2019-05-03T01:06:52.564Z,16.60
2019-05-03T01:09:22.900Z,16.60
2019-05-03T01:11:52.348Z,16.70
2019-05-03T01:14:19.821Z,16.70
2019-05-03T01:16:47.372Z,16.70
2019-05-03T01:19:14.970Z,16.70
2019-05-03T01:21:42.582Z,16.80
2019-05-03T01:24:12.174Z,16.80
2019-05-03T01:26:39.547Z,16.70
2019-05-03T01:29:07.197Z,16.70
2019-05-03T01:31:34.841Z,16.70
2019-05-03T01:34:02.492Z,16.70
2019-05-03T01:36:31.807Z,16.60
2019-05-03T01:38:59.629Z,16.60
2019-05-03T01:41:27.240Z,16.60
2019-05-03T01:43:54.904Z,16.50
2019-05-03T01:46:22.915Z,16.40
2019-05-03T01:48:57.949Z,16.50
2019-05-03T01:51:33.950Z,16.40
2019-05-03T01:54:01.771Z,16.40
2019-05-03T01:56:29.378Z,16.20
2019-05-03T01:58:56.965Z,16.10
2019-05-03T02:01:36.994Z,16.00
2019-05-03T02:04:12.240Z,15.90
2019-05-03T02:06:39.852Z,16.00
2019-05-03T02:09:07.664Z,16.10
2019-05-03T02:11:35.263Z,16.20
2019-05-03T02:14:02.873Z,16.20
2019-05-03T02:16:32.396Z,16.10
2019-05-03T02:18:59.887Z,16.10
2019-05-03T02:21:27.465Z,16.00
2019-05-03T02:23:55.055Z,16.00
2019-05-03T02:26:22.623Z,16.00
2019-05-03T02:28:50.223Z,16.00
2019-05-03T02:31:17.786Z,16.10
2019-05-03T02:33:45.365Z,16.10
2019-05-03T02:36:13.579Z,16.10
2019-05-03T02:38:42.923Z,16.10
2019-05-03T02:41:13.327Z,16.00
2019-05-03T02:43:45.297Z,16.10
2019-05-03T02:46:25.364Z,16.00
2019-05-03T02:49:15.215Z,16.10
2019-05-03T02:51:41.705Z,15.80
2019-05-03T02:54:09.318Z,15.70
2019-05-03T02:56:36.955Z,15.50
2019-05-03T02:59:06.146Z,15.40
2019-05-03T03:01:35.727Z,15.30
2019-05-03T03:04:05.254Z,15.00
2019-05-03T03:06:36.419Z,14.90
2019-05-03T03:09:05.458Z,14.80
2019-05-03T03:11:37.116Z,14.60
2019-05-03T03:14:06.568Z,14.50
2019-05-03T03:16:36.303Z,14.30
2019-05-03T03:19:06.616Z,14.00
2019-05-03T03:21:37.718Z,14.00
2019-05-03T03:24:12.036Z,14.00
2019-05-03T03:26:43.255Z,13.90
2019-05-03T03:29:10.878Z,13.80
2019-05-03T03:32:18.272Z,13.70
2019-05-03T03:34:56.883Z,13.70
2019-05-03T03:37:22.361Z,13.60
2019-05-03T03:39:50.064Z,13.60
2019-05-03T03:42:18.582Z,13.60
2019-05-03T03:44:48.067Z,13.60
2019-05-03T03:47:16.637Z,13.60
2019-05-03T03:49:46.265Z,13.60
2019-05-03T03:52:16.202Z,13.60
2019-05-03T03:54:46.174Z,13.60
2019-05-03T03:57:16.053Z,13.60
2019-05-03T03:59:45.414Z,13.50
2019-05-03T04:02:15.968Z,13.50
2019-05-03T04:04:45.211Z,13.40
2019-05-03T04:07:15.506Z,13.60
2019-05-03T04:09:45.385Z,13.80
2019-05-03T04:12:12.387Z,13.90
2019-05-03T04:14:49.492Z,13.90
2019-05-03T04:17:36.693Z,13.90
2019-05-03T04:20:05.145Z,13.90
2019-05-03T04:22:32.788Z,13.90
2019-05-03T04:25:00.397Z,13.80
2019-05-03T04:27:28.044Z,13.80
2019-05-03T04:29:55.797Z,14.00
2019-05-03T04:32:28.448Z,14.10
2019-05-03T04:34:52.833Z,14.00
2019-05-03T04:37:20.379Z,14.20
2019-05-03T04:39:47.977Z,14.10
2019-05-03T04:42:16.620Z,14.10
2019-05-03T04:44:45.611Z,14.20
2019-05-03T04:47:15.404Z,14.20
2019-05-03T04:49:42.808Z,14.20
2019-05-03T04:52:10.435Z,14.20
2019-05-03T04:54:57.506Z,14.30
2019-05-03T04:57:36.369Z,14.20
2019-05-03T04:59:56.002Z,14.40
2019-05-03T05:02:26.398Z,14.40
2019-05-03T05:04:55.588Z,14.50
2019-05-03T05:07:22.868Z,14.50
2019-05-03T05:09:50.398Z,14.60
2019-05-03T05:12:17.990Z,14.70
2019-05-03T05:14:45.926Z,14.90
2019-05-03T05:17:16.291Z,15.00
2019-05-03T05:19:50.340Z,15.00
2019-05-03T05:22:20.081Z,15.00
2019-05-03T05:24:47.741Z,15.10
2019-05-03T05:27:25.423Z,15.10
2019-05-03T05:29:55.067Z,15.20
2019-05-03T05:32:24.629Z,15.30
2019-05-03T05:34:51.887Z,15.30
2019-05-03T05:37:19.503Z,15.30
2019-05-03T05:39:47.094Z,15.30
2019-05-03T05:42:14.942Z,15.30
2019-05-03T05:44:42.648Z,15.30
2019-05-03T05:47:27.124Z,15.30
2019-05-03T05:50:01.029Z,15.30
2019-05-03T05:52:28.676Z,15.30
2019-05-03T05:55:08.750Z,15.20
2019-05-03T05:57:47.584Z,15.20
2019-05-03T06:00:21.544Z,15.20
2019-05-03T06:02:49.114Z,15.10
2019-05-03T06:05:16.706Z,15.10
2019-05-03T06:08:02.034Z,15.00
2019-05-03T06:10:37.750Z,14.90
2019-05-03T06:13:10.352Z,14.90
2019-05-03T06:15:52.408Z,14.80
2019-05-03T06:18:25.101Z,14.70
2019-05-03T06:21:08.688Z,14.60
2019-05-03T06:23:40.640Z,14.60
2019-05-03T06:26:26.020Z,14.60
2019-05-03T06:28:54.518Z,14.60
2019-05-03T06:31:44.611Z,14.60
2019-05-03T06:34:12.238Z,14.60
2019-05-03T06:36:41.139Z,14.60
2019-05-03T06:39:09.024Z,14.60
2019-05-03T06:41:36.590Z,14.50
2019-05-03T06:44:04.575Z,14.40
2019-05-03T06:46:45.852Z,14.30
2019-05-03T06:49:15.119Z,14.30
2019-05-03T06:51:45.584Z,14.10
2019-05-03T06:54:12.221Z,14.10
2019-05-03T06:56:41.417Z,14.00
2019-05-03T06:59:15.152Z,14.00
2019-05-03T07:01:51.560Z,14.00
2019-05-03T07:10:08.721Z,14.20
2019-05-03T07:12:54.940Z,14.40
2019-05-03T07:15:24.988Z,14.40
2019-05-03T07:17:55.678Z,14.40
2019-05-03T07:20:25.539Z,14.40
2019-05-03T07:22:55.693Z,14.30
2019-05-03T07:25:25.568Z,14.40
2019-05-03T07:27:55.595Z,14.40
2019-05-03T07:30:24.918Z,14.40
2019-05-03T07:32:59.158Z,14.30
2019-05-03T07:35:28.539Z,16.10
2019-05-03T07:37:56.638Z,14.30
2019-05-03T07:41:07.925Z,14.40
2019-05-03T07:43:36.203Z,14.70
2019-05-03T07:46:05.586Z,14.90
2019-05-03T07:48:39.378Z,15.00
2019-05-03T07:51:08.079Z,15.10
2019-05-03T07:53:42.179Z,15.20
2019-05-03T07:56:16.487Z,15.10
2019-05-03T07:58:59.498Z,15.00
2019-05-03T08:01:25.186Z,15.10
2019-05-03T08:03:55.018Z,15.10
2019-05-03T08:06:24.565Z,15.20
2019-05-03T08:08:51.800Z,15.40
2019-05-03T08:11:19.438Z,15.60
2019-05-03T08:13:47.069Z,16.20
2019-05-03T08:16:16.064Z,16.10
2019-05-03T08:18:45.736Z,16.10
2019-05-03T08:21:14.863Z,16.10
2019-05-03T08:23:42.891Z,16.10
2019-05-03T08:26:12.395Z,16.20
2019-05-03T08:28:40.029Z,16.30
2019-05-03T08:35:09.434Z,16.60
2019-05-03T08:37:51.022Z,16.50
2019-05-03T08:40:54.811Z,16.60
2019-05-03T09:36:34.472Z,20.00
2019-05-03T09:39:02.364Z,20.10
2019-05-03T09:41:30.063Z,20.40
2019-05-03T09:44:04.755Z,20.70
2019-05-03T09:46:38.684Z,20.50
2019-05-03T09:49:13.205Z,20.70
2019-05-03T09:51:35.913Z,21.00
2019-05-03T09:54:15.568Z,21.50
2019-05-03T09:57:01.555Z,21.70
2019-05-03T09:59:29.597Z,21.70
2019-05-03T10:01:58.025Z,20.90
2019-05-03T10:04:25.715Z,21.10
2019-05-03T10:06:54.804Z,21.80
2019-05-03T10:09:22.809Z,21.70
2019-05-03T10:11:50.889Z,21.60
2019-05-03T10:14:18.580Z,21.70
2019-05-03T10:17:01.614Z,21.70
2019-05-03T10:19:39.640Z,21.10
2019-05-03T10:21:59.062Z,21.20
2019-05-03T10:24:26.944Z,21.30
2019-05-03T10:26:55.225Z,21.40
2019-05-03T10:29:24.985Z,21.40
2019-05-03T10:32:16.079Z,21.30
2019-05-03T10:34:54.829Z,20.70
2019-05-03T10:37:32.274Z,20.10
2019-05-03T10:40:01.537Z,20.20
2019-05-03T10:42:29.404Z,20.50
2019-05-03T10:44:57.072Z,20.70
2019-05-03T10:47:25.463Z,20.70
2019-05-03T10:49:55.044Z,20.80
2019-05-03T10:52:25.937Z,20.20
2019-05-03T10:54:55.741Z,20.30
2019-05-03T10:57:24.887Z,20.00
2019-05-03T10:59:52.597Z,19.70
2019-05-03T11:02:46.213Z,19.50
2019-05-03T11:05:14.644Z,19.30
2019-05-03T11:07:42.469Z,18.80
2019-05-03T11:10:10.431Z,19.90
2019-05-03T11:12:40.516Z,18.00
2019-05-03T11:15:09.009Z,17.90
2019-05-03T11:17:37.120Z,18.00
2019-05-03T11:20:05.363Z,17.80
2019-05-03T11:25:02.298Z,17.70
2019-05-03T11:27:36.714Z,17.50
2019-05-03T11:30:05.014Z,17.30
2019-05-03T11:35:39.096Z,17.50
2019-05-03T11:38:15.079Z,17.40
2019-05-03T11:40:45.379Z,17.40
2019-05-03T11:43:12.101Z,17.20
2019-05-03T11:45:40.607Z,17.20
2019-05-03T11:48:09.966Z,17.40
2019-05-03T11:50:37.708Z,17.60
2019-05-03T11:53:05.550Z,17.40
2019-05-03T11:55:36.231Z,17.30
2019-05-03T11:58:17.433Z,17.00
2019-05-03T12:00:45.251Z,16.50
2019-05-03T12:03:25.056Z,16.00
2019-05-03T12:05:55.184Z,15.60
2019-05-03T12:17:16.748Z,15.60
2019-05-03T12:19:32.317Z,15.60
2019-05-03T12:22:00.893Z,15.60
2019-05-03T12:25:13.282Z,15.60
2019-05-03T12:27:44.515Z,15.60
2019-05-03T12:30:27.651Z,15.30
2019-05-03T12:32:54.734Z,15.00
2019-05-03T12:35:24.704Z,14.90
2019-05-03T12:37:52.590Z,14.70
2019-05-03T12:40:20.453Z,14.60
2019-05-03T12:42:49.817Z,14.80
2019-05-03T12:45:17.661Z,14.70
2019-05-03T12:47:46.733Z,14.80
2019-05-03T12:50:18.647Z,14.90
2019-05-03T12:52:50.514Z,15.00
2019-05-03T12:55:16.103Z,15.00
2019-05-03T12:57:46.467Z,15.30
2019-05-03T13:00:40.161Z,15.50
2019-05-03T13:03:17.841Z,16.00
2019-05-03T13:05:45.942Z,16.30
2019-05-03T13:08:41.348Z,16.50
2019-05-03T13:11:11.996Z,16.70
2019-05-03T13:18:05.096Z,16.70
2019-05-03T13:20:32.671Z,17.60
2019-05-03T13:23:00.281Z,17.50
2019-05-03T13:25:28.038Z,18.20
2019-05-03T13:27:57.402Z,18.60
2019-05-03T13:30:25.178Z,18.50
2019-05-03T13:32:54.788Z,17.90
2019-05-03T13:35:22.210Z,17.70
2019-05-03T13:37:49.793Z,17.60
2019-05-03T13:40:17.425Z,17.50
2019-05-03T13:42:56.251Z,17.40
2019-05-03T13:45:14.526Z,17.70
2019-05-03T13:47:44.535Z,17.50
2019-05-03T13:50:15.131Z,17.40
2019-05-03T13:52:45.119Z,17.20
2019-05-03T13:55:14.481Z,17.40
2019-05-03T13:57:41.813Z,17.80
2019-05-03T14:00:10.645Z,17.70
2019-05-03T14:02:38.501Z,17.90
2019-05-03T14:05:06.414Z,18.30
2019-05-03T14:07:35.360Z,18.60
2019-05-03T14:10:03.732Z,18.40
2019-05-03T14:12:31.350Z,18.40
2019-05-03T14:14:59.122Z,18.20
2019-05-03T14:17:28.480Z,17.70
2019-05-03T14:20:20.616Z,17.90
2019-05-03T14:22:48.989Z,17.90
2019-05-03T14:25:16.555Z,18.80
2019-05-03T14:27:45.620Z,18.60
2019-05-03T14:30:14.614Z,18.60
2019-05-03T14:32:42.276Z,18.50
2019-05-03T14:35:18.568Z,18.80
2019-05-03T14:37:49.280Z,19.10
2019-05-03T14:40:17.961Z,18.60
2019-05-03T14:42:45.626Z,18.20
2019-05-03T14:45:16.004Z,18.80
2019-05-03T14:47:49.740Z,19.40
2019-05-03T14:50:17.398Z,19.80
2019-05-03T14:52:46.382Z,20.10
2019-05-03T14:55:20.784Z,20.20
2019-05-03T14:57:59.108Z,19.50
2019-05-03T15:00:46.286Z,19.30
2019-05-03T15:03:17.231Z,19.60
2019-05-03T15:05:45.869Z,19.40
2019-05-03T15:08:15.033Z,18.80
2019-05-03T15:10:42.786Z,18.30
2019-05-03T15:13:10.354Z,17.90
2019-05-03T15:15:37.896Z,17.70
2019-05-03T15:18:52.048Z,17.50
2019-05-03T15:21:19.667Z,17.50
2019-05-03T15:23:47.288Z,17.80
2019-05-03T15:26:14.833Z,17.30
2019-05-03T15:28:42.429Z,17.40
2019-05-03T15:31:12.367Z,16.90
2019-05-03T15:33:40.246Z,16.90
2019-05-03T15:36:07.955Z,16.80
2019-05-03T15:38:35.562Z,17.00
2019-05-03T15:41:05.425Z,17.00
2019-05-03T15:43:40.695Z,17.00
2019-05-03T15:46:22.580Z,17.00
2019-05-03T15:48:55.080Z,17.00
2019-05-03T15:51:24.418Z,16.60
2019-05-03T15:53:52.181Z,16.60
2019-05-03T15:56:19.825Z,16.60
2019-05-03T15:58:47.431Z,16.60
2019-05-03T16:01:15.411Z,16.40
2019-05-03T16:03:44.737Z,16.30
2019-05-03T16:06:12.477Z,16.30
2019-05-03T16:08:40.063Z,16.30
2019-05-03T16:11:09.100Z,16.30
2019-05-03T16:13:38.371Z,16.00
2019-05-03T16:16:06.243Z,15.80
2019-05-03T16:18:35.227Z,15.70
2019-05-03T16:21:04.932Z,15.60
2019-05-03T16:23:32.577Z,15.70
2019-05-03T16:26:00.173Z,15.60
2019-05-03T16:28:56.167Z,15.70
2019-05-03T16:31:26.291Z,15.80
2019-05-03T16:33:55.014Z,15.80
2019-05-03T16:36:22.667Z,15.50
2019-05-03T16:38:50.234Z,15.20
2019-05-03T16:41:18.056Z,14.90
2019-05-03T16:43:45.914Z,14.60
2019-05-03T16:46:14.536Z,14.40
2019-05-03T16:48:42.274Z,14.20
2019-05-03T16:51:09.877Z,14.00
2019-05-03T16:53:37.436Z,14.00
2019-05-03T16:56:06.433Z,14.00
2019-05-03T16:58:35.401Z,14.00
2019-05-03T17:01:04.153Z,14.00
2019-05-03T17:03:41.446Z,13.80
2019-05-03T17:06:19.092Z,13.80
2019-05-03T17:09:17.938Z,13.60
2019-05-03T17:12:05.128Z,13.60
2019-05-03T17:14:34.390Z,13.50
2019-05-03T17:17:01.952Z,13.30
2019-05-03T17:19:29.665Z,13.30
2019-05-03T17:21:57.254Z,13.30
2019-05-03T17:24:24.924Z,13.10
2019-05-03T17:26:52.635Z,13.10
2019-05-03T17:29:20.196Z,13.00
2019-05-03T17:31:47.768Z,13.00
2019-05-03T17:34:15.494Z,13.00
2019-05-03T17:36:44.950Z,12.90
2019-05-03T17:39:15.060Z,13.00
2019-05-03T17:41:54.689Z,12.90
2019-05-03T17:44:25.959Z,12.80
2019-05-03T17:46:54.904Z,12.60
2019-05-03T17:49:24.868Z,12.70
2019-05-03T17:52:20.762Z,12.50
2019-05-03T17:55:10.801Z,12.40
2019-05-03T17:57:55.511Z,12.30
2019-05-03T18:01:00.874Z,12.20
2019-05-03T18:03:31.700Z,12.20
2019-05-03T18:06:25.314Z,12.00
2019-05-03T18:09:09.978Z,12.10
2019-05-03T18:11:40.111Z,12.10
2019-05-03T18:14:08.222Z,12.00
2019-05-03T18:16:35.766Z,12.00
2019-05-03T18:19:05.205Z,12.10
2019-05-03T18:21:33.075Z,12.10
2019-05-03T18:24:00.722Z,12.10
2019-05-03T18:26:28.470Z,12.10
2019-05-03T18:28:56.164Z,12.10
2019-05-03T18:31:25.040Z,12.10
2019-05-03T18:33:54.710Z,12.10
2019-05-03T18:36:22.380Z,11.90
2019-05-03T18:38:49.974Z,11.90
2019-05-03T18:41:18.110Z,11.90
2019-05-03T18:44:05.094Z,11.80
2019-05-03T18:46:36.308Z,10.70
2019-05-03T18:49:04.514Z,11.80
2019-05-03T18:51:32.108Z,11.80
2019-05-03T18:53:59.738Z,11.80
2019-05-03T18:56:27.653Z,11.80
2019-05-03T18:58:55.189Z,11.90
2019-05-03T19:01:22.758Z,11.90
2019-05-03T19:03:53.137Z,12.00
2019-05-03T19:06:20.977Z,11.90
2019-05-03T19:09:08.309Z,11.90
2019-05-03T19:11:50.850Z,11.90
2019-05-03T19:14:19.416Z,11.90
2019-05-03T19:16:57.288Z,11.80
2019-05-03T19:19:29.403Z,11.80
2019-05-03T19:21:56.966Z,11.80
2019-05-03T19:24:24.733Z,11.80
2019-05-03T19:26:54.282Z,11.70
2019-05-03T19:29:21.645Z,11.80
2019-05-03T19:31:49.181Z,11.70
2019-05-03T19:34:16.797Z,11.80
2019-05-03T19:36:45.638Z,11.70
2019-05-03T19:39:14.378Z,11.70
2019-05-03T19:41:42.065Z,11.90
2019-05-03T19:44:09.693Z,11.80
2019-05-03T19:46:47.043Z,11.80
2019-05-03T19:49:14.630Z,11.80
2019-05-03T19:51:45.162Z,11.80
2019-05-03T19:54:14.577Z,11.80
2019-05-03T19:56:42.546Z,11.80
2019-05-03T19:59:12.508Z,11.80
2019-05-03T20:02:02.037Z,11.80
2019-05-03T20:05:01.019Z,11.80
2019-05-03T20:07:45.201Z,11.70
2019-05-03T20:10:14.660Z,11.60
2019-05-03T20:12:42.512Z,11.60
2019-05-03T20:15:10.072Z,11.60
2019-05-03T20:17:37.727Z,11.50
2019-05-03T20:20:05.613Z,11.70
2019-05-03T20:22:34.971Z,11.50
2019-05-03T20:25:04.624Z,11.40
2019-05-03T20:27:32.287Z,11.40
2019-05-03T20:29:59.848Z,11.20
2019-05-03T20:34:55.348Z,11.20
2019-05-03T20:37:25.015Z,11.10
2019-05-03T20:39:54.405Z,11.10
2019-05-03T20:42:39.825Z,11.10
2019-05-03T20:45:11.105Z,11.10
2019-05-03T20:47:45.382Z,11.00
2019-05-03T20:50:16.766Z,11.00
2019-05-03T20:52:44.626Z,10.90
2019-05-03T20:55:15.503Z,10.90
2019-05-03T20:57:44.420Z,10.90
2019-05-03T21:00:14.934Z,11.00
2019-05-03T21:02:51.516Z,10.80
2019-05-03T21:05:24.728Z,10.80
2019-05-03T21:07:43.025Z,10.70
2019-05-03T21:10:10.972Z,10.70
2019-05-03T21:12:38.877Z,10.70
2019-05-03T21:15:09.715Z,10.50
2019-05-03T21:17:55.491Z,10.30
2019-05-03T21:20:41.022Z,10.20
2019-05-03T21:23:09.633Z,9.90
2019-05-03T21:26:03.624Z,9.90
2019-05-03T21:28:13.378Z,9.80
2019-05-03T21:30:41.365Z,9.70
2019-05-03T21:33:10.113Z,9.50
2019-05-03T21:35:41.580Z,9.60
2019-05-03T21:38:07.894Z,9.40
2019-05-03T21:40:40.259Z,9.30
2019-05-03T21:43:08.838Z,9.30
2019-05-03T21:45:45.357Z,9.40
2019-05-03T21:48:24.894Z,9.30
2019-05-03T21:51:04.403Z,9.30
2019-05-03T21:53:32.070Z,9.30
2019-05-03T21:56:00.605Z,12.10
2019-05-03T21:58:28.236Z,9.40
2019-05-03T22:01:00.691Z,9.50
2019-05-03T22:03:28.298Z,9.40
2019-05-03T22:05:58.107Z,9.40
2019-05-03T22:08:25.699Z,9.40
2019-05-03T22:10:55.281Z,9.40
2019-05-03T22:13:24.491Z,9.40
2019-05-03T22:16:11.447Z,9.40
2019-05-03T22:18:39.260Z,9.50
2019-05-03T22:21:30.550Z,9.40
2019-05-03T22:24:16.213Z,9.30
2019-05-03T22:27:00.887Z,9.30
2019-05-03T22:29:28.682Z,9.40
2019-05-03T22:31:56.291Z,9.20
2019-05-03T22:34:25.692Z,8.60
2019-05-03T22:36:54.856Z,9.30
2019-05-03T22:39:22.489Z,9.20
2019-05-03T22:41:50.068Z,9.20
2019-05-03T22:44:17.629Z,9.20
2019-05-03T22:46:46.157Z,9.20
2019-05-03T22:49:15.494Z,9.10
2019-05-03T22:51:45.013Z,9.00
2019-05-03T22:54:12.729Z,9.10
2019-05-03T22:56:40.334Z,9.10
2019-05-03T22:59:08.117Z,9.00
2019-05-03T23:01:35.725Z,9.10
2019-05-03T23:04:03.255Z,9.00
2019-05-03T23:06:30.895Z,8.90
2019-05-03T23:09:01.493Z,8.80
2019-05-03T23:11:29.192Z,8.90
2019-05-03T23:14:04.652Z,8.80
2019-05-03T23:16:32.931Z,8.80
2019-05-03T23:19:01.170Z,8.80
2019-05-03T23:21:33.772Z,8.60
2019-05-03T23:24:01.344Z,8.60
2019-05-03T23:26:28.959Z,8.70
2019-05-03T23:28:56.547Z,8.60
2019-05-03T23:31:25.197Z,8.60
2019-05-03T23:33:54.495Z,8.70
2019-05-03T23:36:32.773Z,8.60
2019-05-03T23:38:51.923Z,8.50
2019-05-03T23:41:20.045Z,8.60
2019-05-03T23:43:47.612Z,8.50
2019-05-03T23:46:17.065Z,8.50
2019-05-03T23:48:44.870Z,8.50
2019-05-03T23:51:32.177Z,8.60
2019-05-03T23:53:59.988Z,8.60
2019-05-03T23:56:27.626Z,8.50
2019-05-03T23:58:55.210Z,8.60
